Aviation Digital Data Service (ADDS)

Output produced by METARs form (2116 UTC 21 May 2022)
found at http://www.aviationweather.gov/metar/data/
 
KFAR 212015Z 2120/2218 32009KT P6SM VCSH BKN050 
     FM220300 30005KT P6SM BKN070 
     FM220600 27005KT P6SM SCT120
       
KFAT 211720Z 2118/2218 VRB04KT P6SM SKC
       
KFAY 212111Z 2121/2218 22012G20KT P6SM -SHRA BKN050 
     FM212300 16004KT P6SM VCSH OVC040 
     FM220400 16004KT 5SM BR BKN020 
     FM221300 23006KT P6SM SCT020 SCT250
       
TAF AMD KFBG 211900Z 2119/2223 VRB06KT 9999 SCT050 QNH3012INS 
     BECMG 2119/2120 19009KT 9000 -SHRA SCT050 QNH3009INS 
     TEMPO 2119/2123 VRB35G45KT 9000 -TSRA SCT050CB 
     BECMG 2123/2124 20009KT 9999 NSW FEW030 QNH3012INS 
     BECMG 2202/2203 19006KT 9999 SCT018 QNH3017INS 
     BECMG 2210/2211 VRB06KT 8000 -SHRA BKN011 QNH3017INS 
     BECMG 2212/2213 VRB06KT 8000 BR BKN010 QNH3021INS 
     BECMG 2216/2217 25012KT 9000 -SHRA SCT020 QNH3017INS 
     TEMPO 2218/2221 VRB25G35KT 9000 -TSRA SCT020CB 
     BECMG 2221/2222 22010G15KT 9999 NSW FEW025 QNH3009INS TX35/2119Z TN22/2210Z
       
TAF KFCS 211300Z 2113/2219 07005KT 2400 -SN OVC005 QNH3015INS 
     BECMG 2117/2118 12006KT 4000 -RASN SCT005 BKN010 QNH3024INS 
     BECMG 2120/2121 16009KT 8000 BR VCSH BKN010 QNH3026INS 
     BECMG 2200/2201 33009KT 9000 BR BKN015 QNH3029INS 
     BECMG 2209/2210 19005KT 9000 BR BKN020 QNH3033INS TX01/2219Z TNM01/2113Z
       
KFDY 211939Z 2120/2218 24012G20KT P6SM SCT045 BKN150 
     FM212030 24012KT 3SM -TSRA SCT025CB OVC045 
     TEMPO 2121/2122 VRB25G40KT TSRAGS OVC025CB 
     FM212200 25005KT 6SM -SHRA BKN025 OVC035 
     FM220400 25010KT P6SM OVC015 
     FM221200 30010KT P6SM OVC015
       
TAF AMD KFFO 212043Z 2120/2301 22012KT 9000 -SHRA VCTS BKN035CB OVC080
QNH2992INS 
     TEMPO 2120/2123 VRB35G50KT 3200 +TSRAGR OVC025CB 
     TEMPO 2123/2124 27015G25KT 
     BECMG 2123/2124 30009KT 9999 NSW SCT035 BKN080 OVC180 510102 QNH2991INS 
     BECMG 2203/2204 27012KT 9000 -SHRA VCTS BKN030CB OVC060 QNH2995INS 
     TEMPO 2205/2209 25014G20KT 8000 -TSRA OVC020CB 
     BECMG 2208/2209 26009KT 8000 -SHRA BR BKN015 OVC080 520103 QNH3002INS 
     BECMG 2213/2215 32012G18KT 9999 NSW BKN025 OVC045 QNH3012INS 
     BECMG 2219/2220 32012KT 9999 SCT035 QNH3019INS TX25/2122Z TN16/2214Z
       
KFKL 211722Z 2118/2218 23010G18KT P6SM SCT040 
     FM212200 23007KT P6SM VCTS SCT060CB 
     TEMPO 2122/2202 28008G20KT 4SM -TSRA BKN035CB 
     FM220200 24005KT P6SM VCSH BKN050 
     FM220400 28004KT P6SM BKN070 
     FM221200 21006KT P6SM -SHRA BKN016 
     FM221500 24009KT P6SM VCSH OVC018
       
KFLG 211725Z 2118/2218 21016G28KT P6SM FEW040 SCT250 
     FM220200 23009KT P6SM FEW250 
     FM220900 VRB05KT P6SM FEW250 
     FM221600 22008G19KT P6SM FEW250
       
TAF COR KFLL 212058Z 2121/2224 12012KT P6SM SCT020 BKN200 
     FM221400 12014KT P6SM SCT025 BKN200
       
KFLO 211824Z 2118/2218 21006KT P6SM VCTS SCT035CB BKN050CB 
     TEMPO 2118/2122 -SHRA BKN030 
     FM220000 20007KT P6SM BKN120 OVC250 
     FM220600 20005KT P6SM SCT020 
     FM221200 25007KT P6SM OVC100
       
KFMH 212014Z 2120/2218 17007KT P6SM SKC 
     FM220200 23007KT 6SM BR SCT008 
     FM220800 22005KT 6SM BR SCT020 
     FM221300 23010G20KT P6SM FEW250
       
KFMN 211731Z 2118/2218 25007KT P6SM BKN100 
     FM212000 27012G20KT P6SM SCT080 
     FM220100 29009KT P6SM BKN100 
     FM220700 13013KT P6SM BKN080
       
KFMY 211734Z 2118/2218 16008KT P6SM SCT030 SCT045 SCT250 
     FM212000 21011KT P6SM VCSH SCT030 BKN250 
     TEMPO 2122/2201 VRB10G20KT 3SM TSRA SCT020CB OVC030 
     FM220400 10008KT P6SM FEW025 BKN100 
     FM221400 12010KT P6SM SCT030 BKN100
       
KFNT 212023Z 2120/2218 30012KT P6SM SCT035 BKN080 
     TEMPO 2202/2204 BKN022 OVC050 
     FM220400 04006KT 4SM -SHRA BR OVC006 
     FM221400 31008KT P6SM OVC015
       
KFOD 211732Z 2118/2218 33009KT P6SM SCT040 BKN250 
     FM220200 28004KT P6SM SCT040 
     FM221500 30008KT P6SM SKC
       
KFOE 211720Z 2118/2218 36014G24KT P6SM SCT100 
     FM220100 01006KT P6SM FEW150
       
KFPR 211927Z 2119/2218 11012G18KT P6SM SCT020 SCT030 
     FM212100 13012G18KT P6SM VCTS BKN040CB BKN200 
     FM220000 12006KT P6SM SCT120 SCT250 
     FM221500 13010KT P6SM SCT035 SCT250
       
KFSD 211741Z 2118/2218 32012G20KT P6SM SCT030 BKN050 
     TEMPO 2119/2123 -SHRA 
     FM220200 32007KT P6SM FEW045 SCT100 
     FM220800 VRB03KT P6SM FEW045 FEW250 
     FM221600 32007KT P6SM FEW050
       
KFSM 211721Z 2118/2218 04007KT P6SM VCSH BKN040 
     TEMPO 2118/2122 3SM -TSRA BKN015CB 
     FM212200 32010KT P6SM VCSH BKN015 
     TEMPO 2122/2202 BKN007 
     FM220200 03012KT P6SM BKN015 
     FM220900 36005KT P6SM BKN050
       
KFST 212019Z 2120/2218 36014G22KT P6SM SKC 
     FM212100 02010KT P6SM SKC 
     FM220400 06014KT P6SM FEW120 SCT250 
     FM221300 03012KT P6SM OVC030
       
KFTW 212106Z 2121/2218 32015G25KT P6SM BKN060 
     FM212200 34017KT P6SM BKN027 
     FM220100 35015G25KT P6SM VCSH BKN018 
     FM220500 01020KT P6SM BKN025
       
KFTY 211733Z 2118/2218 18009KT P6SM VCSH BKN035 
     FM212000 18007KT P6SM SCT060 
     TEMPO 2120/2124 VRB10G20KT 5SM -SHRA BKN030 
     FM220900 21004KT P6SM FEW040 
     FM221200 24005KT P6SM SCT015 
     FM221500 24006KT P6SM SCT025 
     PROB30 2215/2218 4SM SHRA BR OVC015
       
KFVE 212015Z 2120/2218 17010KT P6SM VCTS BKN024CB 
     TEMPO 2120/2122 1SM +TSRA BKN011CB 
     FM220000 20006KT 6SM -SHRA BKN007 
     FM220900 00000KT P6SM VCSH BKN004 
     FM221600 16005KT P6SM VCTS BKN013CB
       
KFWA 211907Z 2119/2218 30013G20KT P6SM BKN035 OVC100 
     TEMPO 2120/2123 6SM -SHRA OVC025 
     FM212300 34010KT P6SM SCT035 OVC100 
     FM220400 36005KT 6SM -SHRA OVC025 
     FM221200 32010KT P6SM BKN025
       
KFXE 212103Z 2121/2218 12012KT P6SM SCT020 BKN030 
     FM221400 12013KT P6SM SCT025 BKN200
       
KFYV 212102Z 2121/2218 35012KT P6SM VCSH OVC007 
     FM220300 01008KT P6SM BKN015 
     FM220700 01008KT P6SM BKN050